Time;durP1;ratioP1;P1;durP2;ratioP2;P2;SDS_P1;SDS_P2;PMS_P1;PMS_P2;Temp;Humidity;BMP_temperature;BMP_pressure;BME280_temperature;BME280_humidity;BME280_pressure;Samples;Min_cycle;Max_cycle;Signal;HPM_P1;HPM_P2
2024/01/30 00:01:41;;;;;;;24.45;16.25;;;4.70;99.90;;;;;;5112266;28;20062;-83
2024/01/30 00:04:07;;;;;;;24.20;16.48;;;3.60;99.90;;;;;;5098298;28;20045;-83
2024/01/30 00:06:32;;;;;;;23.98;16.85;;;3.90;99.90;;;;;;5115609;28;20040;-84
2024/01/30 00:08:58;;;;;;;22.33;15.32;;;4.70;99.90;;;;;;5116113;28;20075;-84
2024/01/30 00:11:25;;;;;;;26.38;17.70;;;4.30;99.90;;;;;;5114392;28;20035;-83
2024/01/30 00:13:51;;;;;;;21.77;15.93;;;5.10;99.90;;;;;;5115403;28;20084;-83
2024/01/30 00:16:24;;;;;;;24.10;15.32;;;4.70;99.90;;;;;;5116422;28;20050;-84
2024/01/30 00:18:54;;;;;;;21.42;14.98;;;2.70;99.90;;;;;;5115441;28;20051;-84
2024/01/30 00:21:20;;;;;;;20.83;14.32;;;4.50;99.90;;;;;;5115907;28;20074;-86
2024/01/30 00:23:46;;;;;;;21.42;15.73;;;4.50;99.90;;;;;;5114919;28;20039;-85
2024/01/30 00:26:12;;;;;;;23.30;15.35;;;4.40;99.90;;;;;;5115841;28;20119;-86
2024/01/30 00:28:38;;;;;;;23.98;16.25;;;3.80;99.90;;;;;;5115342;28;20036;-85
2024/01/30 00:31:04;;;;;;;28.00;16.38;;;4.20;99.90;;;;;;5115123;28;20102;-84
2024/01/30 00:33:30;;;;;;;24.70;16.23;;;4.10;99.90;;;;;;5097356;28;20128;-84
2024/01/30 00:35:56;;;;;;;26.30;16.58;;;3.50;99.90;;;;;;5116031;28;20032;-84
2024/01/30 00:38:22;;;;;;;23.83;15.93;;;4.40;99.90;;;;;;5114869;28;20048;-83
2024/01/30 00:40:48;;;;;;;26.40;16.45;;;4.60;99.90;;;;;;5114479;28;20052;-84
2024/01/30 00:43:14;;;;;;;28.20;16.52;;;4.30;99.90;;;;;;5115072;28;20047;-83
2024/01/30 00:45:39;;;;;;;23.05;15.15;;;3.00;99.90;;;;;;5115889;28;20035;-85
2024/01/30 00:48:05;;;;;;;21.52;14.10;;;3.40;99.90;;;;;;5114511;28;20130;-83
2024/01/30 00:50:31;;;;;;;24.13;16.08;;;3.20;99.90;;;;;;5114382;28;20078;-84
2024/01/30 00:52:57;;;;;;;21.38;15.48;;;4.70;99.90;;;;;;5114208;28;20126;-83
2024/01/30 00:55:22;;;;;;;24.42;16.02;;;3.10;99.90;;;;;;5115972;28;20036;-85
2024/01/30 00:57:48;;;;;;;25.02;16.85;;;4.60;99.90;;;;;;5114562;28;20482;-83
2024/01/30 01:00:16;;;;;;;29.17;16.35;;;4.20;99.90;;;;;;5114571;28;20096;-84
2024/01/30 01:02:42;;;;;;;30.17;17.33;;;3.20;99.90;;;;;;5114018;28;20043;-83
2024/01/30 01:05:08;;;;;;;25.38;16.65;;;3.10;99.90;;;;;;5115354;28;20036;-84
2024/01/30 01:07:35;;;;;;;22.83;15.55;;;2.70;99.90;;;;;;5114294;28;20050;-86
2024/01/30 01:10:00;;;;;;;26.45;16.60;;;3.10;99.90;;;;;;5115529;28;20039;-83
2024/01/30 01:12:26;;;;;;;26.20;17.13;;;3.00;99.90;;;;;;5115044;28;20414;-84
2024/01/30 01:14:52;;;;;;;22.85;15.73;;;3.60;99.90;;;;;;5112774;28;20496;-84
2024/01/30 01:17:18;;;;;;;28.05;17.95;;;3.60;99.90;;;;;;5115041;28;20080;-83
2024/01/30 01:19:44;;;;;;;25.23;16.38;;;3.00;99.90;;;;;;5115254;28;20096;-85
2024/01/30 01:22:10;;;;;;;28.25;17.90;;;4.50;99.90;;;;;;5097193;28;20126;-83
2024/01/30 01:24:36;;;;;;;31.75;18.05;;;3.60;99.90;;;;;;5115257;28;20519;-83
2024/01/30 01:27:02;;;;;;;29.08;17.90;;;3.00;99.90;;;;;;5113414;28;20047;-83
2024/01/30 01:29:28;;;;;;;24.88;17.15;;;3.10;99.90;;;;;;5115297;28;20035;-86
2024/01/30 01:31:58;;;;;;;29.05;18.17;;;4.30;99.90;;;;;;5113455;28;20072;-83
2024/01/30 01:34:24;;;;;;;23.38;16.63;;;3.00;99.90;;;;;;5113875;28;20039;-85
2024/01/30 01:36:50;;;;;;;24.73;16.15;;;2.80;99.90;;;;;;5113041;28;20039;-83
2024/01/30 01:39:16;;;;;;;24.65;14.85;;;2.90;99.90;;;;;;5114127;28;20425;-85
2024/01/30 01:41:42;;;;;;;23.65;15.52;;;4.20;99.90;;;;;;5113422;28;20496;-84
2024/01/30 01:44:08;;;;;;;26.80;17.00;;;3.00;99.90;;;;;;5115047;28;20117;-85
2024/01/30 01:46:34;;;;;;;21.10;14.88;;;2.40;99.90;;;;;;5113952;28;20480;-84
2024/01/30 01:49:05;;;;;;;25.05;16.05;;;2.80;99.90;;;;;;5112495;28;20035;-83
2024/01/30 01:51:33;;;;;;;24.45;15.23;;;2.70;99.90;;;;;;5114350;28;20043;-84
2024/01/30 01:54:02;;;;;;;19.35;14.88;;;3.00;99.90;;;;;;5113240;28;20122;-84
2024/01/30 01:56:29;;;;;;;22.70;15.15;;;4.00;99.90;;;;;;5114285;28;20401;-85
2024/01/30 01:58:55;;;;;;;24.33;15.85;;;3.90;99.90;;;;;;5114398;28;20050;-84
2024/01/30 02:01:21;;;;;;;24.40;16.92;;;1.90;99.90;;;;;;5114460;28;20088;-84
2024/01/30 02:03:47;;;;;;;27.80;17.17;;;2.40;99.90;;;;;;5113150;28;20043;-84
2024/01/30 02:06:16;;;;;;;27.08;17.73;;;4.00;99.90;;;;;;5112583;28;20444;-84
2024/01/30 02:08:42;;;;;;;26.90;17.95;;;2.40;99.90;;;;;;5122524;27;20440;-84
2024/01/30 02:11:08;;;;;;;25.77;16.55;;;2.90;99.90;;;;;;5093099;28;20127;-84
2024/01/30 02:13:34;;;;;;;25.23;17.10;;;2.20;99.90;;;;;;5093729;28;20044;-83
2024/01/30 02:16:00;;;;;;;27.23;16.73;;;4.00;99.90;;;;;;5093589;28;20051;-84
2024/01/30 02:18:26;;;;;;;27.08;17.48;;;2.50;99.90;;;;;;5113685;28;20053;-84
2024/01/30 02:20:56;;;;;;;26.13;17.52;;;3.80;99.90;;;;;;5113631;28;20043;-83
2024/01/30 02:23:24;;;;;;;29.42;17.67;;;3.90;99.90;;;;;;5112959;28;20383;-84
2024/01/30 02:25:49;;;;;;;28.10;18.40;;;3.70;99.90;;;;;;5111745;28;20054;-83
2024/01/30 02:28:15;;;;;;;27.63;17.27;;;3.80;99.90;;;;;;5112742;28;20048;-85
2024/01/30 02:30:43;;;;;;;34.22;19.70;;;4.00;99.90;;;;;;5111476;28;20118;-83
2024/01/30 02:33:09;;;;;;;26.35;18.17;;;4.30;99.90;;;;;;5112298;28;20122;-83
2024/01/30 02:35:35;;;;;;;30.45;17.83;;;2.70;99.90;;;;;;5113615;28;20530;-85
2024/01/30 02:38:00;;;;;;;30.48;19.27;;;4.00;99.90;;;;;;5114093;28;20131;-83
2024/01/30 02:40:26;;;;;;;28.08;18.25;;;4.10;99.90;;;;;;5112780;28;20462;-83
2024/01/30 02:42:52;;;;;;;34.08;19.35;;;4.30;99.90;;;;;;5112416;28;20087;-85
2024/01/30 02:45:18;;;;;;;40.42;19.63;;;2.90;99.90;;;;;;5111987;28;20408;-85
2024/01/30 02:47:44;;;;;;;29.05;20.08;;;3.10;99.90;;;;;;5112355;28;20047;-83
2024/01/30 02:50:09;;;;;;;37.50;20.05;;;4.90;99.90;;;;;;5113227;28;20048;-84
2024/01/30 02:52:35;;;;;;;30.15;19.30;;;4.40;99.90;;;;;;5113062;28;20043;-83
2024/01/30 02:55:01;;;;;;;35.90;19.48;;;3.90;99.90;;;;;;5112334;28;20519;-84
2024/01/30 02:57:28;;;;;;;34.92;20.08;;;4.60;99.90;;;;;;5112224;28;20044;-85
2024/01/30 02:59:54;;;;;;;31.50;21.30;;;4.90;99.90;;;;;;5113029;28;20503;-85
2024/01/30 03:02:20;;;;;;;31.90;19.52;;;4.40;99.90;;;;;;5111633;28;20112;-84
2024/01/30 03:04:45;;;;;;;29.48;18.58;;;3.10;99.90;;;;;;5112517;28;20044;-83
2024/01/30 03:07:11;;;;;;;32.55;19.63;;;4.20;99.90;;;;;;5116829;28;20104;-85
2024/01/30 03:09:37;;;;;;;31.05;19.63;;;3.60;99.90;;;;;;5112450;28;20055;-84
2024/01/30 03:12:04;;;;;;;33.72;19.13;;;3.00;99.90;;;;;;5094834;28;20043;-84
2024/01/30 03:14:32;;;;;;;30.23;18.60;;;3.10;99.90;;;;;;5111485;28;20047;-84
2024/01/30 03:16:58;;;;;;;29.23;18.92;;;4.70;99.90;;;;;;5113385;28;20085;-84
2024/01/30 03:19:24;;;;;;;33.10;18.95;;;4.80;99.90;;;;;;5112340;28;20039;-85
2024/01/30 03:21:51;;;;;;;31.27;19.05;;;2.00;99.90;;;;;;5094946;28;20472;-84
2024/01/30 03:24:17;;;;;;;30.05;18.40;;;3.00;99.90;;;;;;5113215;28;20161;-84
2024/01/30 03:26:43;;;;;;;27.48;17.10;;;3.10;99.90;;;;;;5111924;28;20075;-85
2024/01/30 03:29:09;;;;;;;24.90;16.80;;;3.00;99.90;;;;;;5113275;28;20043;-83
2024/01/30 03:31:34;;;;;;;27.20;17.63;;;3.80;99.90;;;;;;5094873;28;20445;-83
2024/01/30 03:34:01;;;;;;;27.42;17.17;;;2.50;99.90;;;;;;5111175;28;20404;-84
2024/01/30 03:36:27;;;;;;;25.83;16.60;;;5.00;99.90;;;;;;5095445;28;20052;-83
2024/01/30 03:38:52;;;;;;;26.90;17.50;;;4.80;99.90;;;;;;5115532;28;20054;-85
2024/01/30 03:41:18;;;;;;;31.02;18.08;;;3.40;99.90;;;;;;5115848;28;20066;-84
2024/01/30 03:43:44;;;;;;;26.80;17.02;;;4.30;99.90;;;;;;5115017;28;20480;-84
2024/01/30 03:46:12;;;;;;;32.47;17.17;;;3.50;99.90;;;;;;5098774;28;20117;-83
2024/01/30 03:48:38;;;;;;;32.75;17.10;;;2.60;99.90;;;;;;5116556;28;20442;-84
2024/01/30 03:51:04;;;;;;;30.15;17.25;;;2.80;99.90;;;;;;5115753;28;20047;-83
2024/01/30 03:53:29;;;;;;;27.88;17.30;;;3.00;99.90;;;;;;5115164;28;20067;-83
2024/01/30 03:55:55;;;;;;;32.38;17.33;;;3.80;99.90;;;;;;5115021;28;20561;-85
2024/01/30 03:58:21;;;;;;;34.22;18.42;;;3.60;99.90;;;;;;5115783;28;20032;-84
2024/01/30 04:00:47;;;;;;;31.38;18.27;;;4.20;99.90;;;;;;5098830;28;20043;-83
2024/01/30 04:03:14;;;;;;;31.17;18.23;;;4.70;99.90;;;;;;5115256;28;20044;-83
2024/01/30 04:05:40;;;;;;;33.75;19.30;;;4.70;99.90;;;;;;5107423;28;20123;-83
2024/01/30 04:08:06;;;;;;;31.48;18.48;;;3.40;99.90;;;;;;5116023;28;20118;-84
2024/01/30 04:10:31;;;;;;;37.08;20.48;;;3.50;99.90;;;;;;5098448;28;20040;-84
2024/01/30 04:12:57;;;;;;;39.88;20.00;;;4.50;99.90;;;;;;5115007;28;20044;-83
2024/01/30 04:15:23;;;;;;;34.85;21.05;;;5.30;99.90;;;;;;5115772;28;20058;-83
2024/01/30 04:17:48;;;;;;;34.83;20.98;;;5.60;99.90;;;;;;5114671;28;20044;-84
2024/01/30 04:20:17;;;;;;;34.67;20.10;;;3.70;99.90;;;;;;5115397;28;20051;-85
2024/01/30 04:22:46;;;;;;;41.72;21.02;;;5.10;99.90;;;;;;5114770;28;20040;-85
2024/01/30 04:25:13;;;;;;;39.47;20.42;;;4.70;99.90;;;;;;5116403;28;20040;-85
2024/01/30 04:27:38;;;;;;;43.00;20.45;;;4.00;99.90;;;;;;5114666;28;20044;-84
2024/01/30 04:30:05;;;;;;;33.97;20.55;;;4.60;99.90;;;;;;5115297;28;20399;-83
2024/01/30 04:32:31;;;;;;;34.17;19.45;;;4.00;99.90;;;;;;5116325;28;20050;-84
2024/01/30 04:34:57;;;;;;;42.85;19.90;;;4.80;99.90;;;;;;5115247;28;20396;-83
2024/01/30 04:37:24;;;;;;;34.78;19.77;;;4.00;99.90;;;;;;5097217;28;20552;-83
2024/01/30 04:39:50;;;;;;;37.25;21.77;;;5.40;99.90;;;;;;5114461;28;20381;-83
2024/01/30 04:42:17;;;;;;;40.65;21.33;;;3.60;99.90;;;;;;5114818;28;20134;-83
2024/01/30 04:44:42;;;;;;;39.78;20.38;;;5.40;99.90;;;;;;5115936;28;20048;-83
2024/01/30 04:47:10;;;;;;;34.90;19.55;;;5.60;99.90;;;;;;5115678;28;20096;-83
2024/01/30 04:49:36;;;;;;;33.25;20.20;;;6.20;99.90;;;;;;5114305;28;20036;-84
2024/01/30 04:52:02;;;;;;;41.40;21.92;;;5.00;99.90;;;;;;5114604;28;20044;-84
2024/01/30 04:54:28;;;;;;;36.63;19.70;;;4.40;99.90;;;;;;5114520;28;20047;-86
2024/01/30 04:56:53;;;;;;;37.28;20.60;;;4.50;99.90;;;;;;5114527;28;20404;-85
2024/01/30 04:59:19;;;;;;;41.80;20.23;;;4.50;99.90;;;;;;5114670;28;20052;-84
2024/01/30 05:01:45;;;;;;;42.15;20.70;;;5.90;99.90;;;;;;5114846;28;20042;-83
2024/01/30 05:04:11;;;;;;;37.17;20.50;;;5.90;99.90;;;;;;5115733;28;20047;-85
2024/01/30 05:06:37;;;;;;;38.13;21.83;;;6.30;99.90;;;;;;5114254;28;20043;-85
2024/01/30 05:09:05;;;;;;;39.85;22.17;;;5.60;99.90;;;;;;5113797;28;20403;-85
2024/01/30 05:11:36;;;;;;;34.83;20.13;;;4.90;99.90;;;;;;5114488;28;20388;-84
2024/01/30 05:14:02;;;;;;;35.53;19.85;;;5.80;99.90;;;;;;5115398;28;20050;-83
2024/01/30 05:16:27;;;;;;;31.83;20.15;;;6.00;99.90;;;;;;5114338;28;20040;-83
2024/01/30 05:18:53;;;;;;;36.10;20.08;;;6.10;99.90;;;;;;5113916;28;20488;-83
2024/01/30 05:21:19;;;;;;;33.03;19.50;;;5.90;99.90;;;;;;5096731;28;20093;-83
2024/01/30 05:23:44;;;;;;;35.47;21.08;;;5.60;99.90;;;;;;5096753;28;20134;-84
2024/01/30 05:26:10;;;;;;;34.83;19.60;;;4.60;99.90;;;;;;5115194;28;20039;-84
2024/01/30 05:28:36;;;;;;;31.75;19.52;;;5.70;99.90;;;;;;5113430;28;20040;-83
2024/01/30 05:31:01;;;;;;;29.08;19.42;;;6.00;99.90;;;;;;5113508;28;20468;-84
2024/01/30 05:33:28;;;;;;;36.50;19.35;;;6.10;99.90;;;;;;5114055;28;20051;-84
2024/01/30 05:35:54;;;;;;;30.15;18.35;;;5.40;99.90;;;;;;5113275;28;20496;-84
2024/01/30 05:38:20;;;;;;;31.00;19.27;;;5.40;99.90;;;;;;5114950;28;20059;-83
2024/01/30 05:40:46;;;;;;;27.67;18.35;;;5.40;99.90;;;;;;5114487;28;20043;-83
2024/01/30 05:43:12;;;;;;;32.50;19.17;;;6.40;99.90;;;;;;5113211;28;20042;-84
2024/01/30 05:45:37;;;;;;;31.13;19.35;;;6.20;99.90;;;;;;5113268;28;20124;-83
2024/01/30 05:48:04;;;;;;;28.92;18.25;;;7.00;99.90;;;;;;5114041;27;20459;-84
2024/01/30 05:50:30;;;;;;;36.25;19.00;;;5.50;99.90;;;;;;5113436;28;20044;-84
2024/01/30 05:52:55;;;;;;;29.55;19.13;;;5.90;99.90;;;;;;5113027;28;20093;-84
2024/01/30 05:55:21;;;;;;;29.73;18.67;;;6.30;99.90;;;;;;5112985;28;20043;-85
2024/01/30 05:57:46;;;;;;;31.13;17.00;;;5.30;99.90;;;;;;5114357;28;20044;-84
2024/01/30 06:00:13;;;;;;;27.10;17.30;;;5.30;99.90;;;;;;5112782;28;20112;-84
2024/01/30 06:02:38;;;;;;;28.83;17.95;;;5.50;99.90;;;;;;5113422;28;20035;-84
2024/01/30 06:05:04;;;;;;;30.42;19.10;;;6.90;99.90;;;;;;5112623;28;20043;-85
2024/01/30 06:07:30;;;;;;;29.17;17.90;;;5.60;99.90;;;;;;5107198;28;20460;-84
2024/01/30 06:09:56;;;;;;;30.05;18.38;;;5.40;99.90;;;;;;5113086;28;20074;-84
2024/01/30 06:12:21;;;;;;;29.48;16.73;;;6.00;99.90;;;;;;5095858;28;20035;-84
2024/01/30 06:14:47;;;;;;;32.25;16.92;;;5.10;99.90;;;;;;5114037;28;20478;-84
2024/01/30 06:17:13;;;;;;;31.48;17.98;;;7.40;99.90;;;;;;5112781;28;20082;-84
2024/01/30 06:19:39;;;;;;;29.48;17.27;;;6.80;99.90;;;;;;5112795;28;20046;-83
2024/01/30 06:22:05;;;;;;;23.80;15.65;;;6.80;99.90;;;;;;5129874;27;20399;-83
2024/01/30 06:24:31;;;;;;;25.58;17.60;;;5.90;99.90;;;;;;5112727;28;20092;-83
2024/01/30 06:26:56;;;;;;;25.35;16.85;;;6.90;99.90;;;;;;5112062;28;20519;-82
2024/01/30 06:29:24;;;;;;;33.53;17.23;;;7.10;99.90;;;;;;5112583;28;20046;-83
2024/01/30 06:31:50;;;;;;;26.45;16.88;;;5.80;99.90;;;;;;5112751;28;20039;-84
2024/01/30 06:34:16;;;;;;;25.63;16.38;;;7.40;99.90;;;;;;5112598;28;20397;-84
2024/01/30 06:36:41;;;;;;;28.40;16.52;;;7.30;99.90;;;;;;5113635;28;20032;-84
2024/01/30 06:39:07;;;;;;;22.65;16.23;;;7.10;99.90;;;;;;5112304;28;20056;-83
2024/01/30 06:41:33;;;;;;;25.00;16.45;;;6.20;99.90;;;;;;5112394;28;20054;-84
2024/01/30 06:43:59;;;;;;;28.63;16.05;;;6.30;99.90;;;;;;5112759;28;20039;-83
2024/01/30 06:46:25;;;;;;;23.63;16.23;;;7.80;99.90;;;;;;5095597;28;20104;-84
2024/01/30 06:48:50;;;;;;;23.77;15.27;;;6.10;99.90;;;;;;5113449;28;20043;-83
2024/01/30 06:51:16;;;;;;;24.98;16.35;;;7.30;99.90;;;;;;5113627;28;20052;-84
2024/01/30 06:53:41;;;;;;;23.92;15.38;;;7.40;99.90;;;;;;5112235;28;20462;-83
2024/01/30 06:56:08;;;;;;;24.80;15.43;;;6.40;99.90;;;;;;5112273;28;20073;-85
2024/01/30 06:58:33;;;;;;;28.17;15.60;;;6.30;99.90;;;;;;5112026;28;20384;-85
2024/01/30 07:00:59;;;;;;;22.13;15.02;;;5.50;99.90;;;;;;5113362;28;20089;-82
2024/01/30 07:03:25;;;;;;;26.48;15.30;;;7.00;99.90;;;;;;5113577;28;20043;-83
2024/01/30 07:05:51;;;;;;;25.75;15.85;;;7.00;99.90;;;;;;5112343;28;20044;-83
2024/01/30 07:08:17;;;;;;;22.65;15.05;;;6.40;99.90;;;;;;5111990;28;20051;-84
2024/01/30 07:10:43;;;;;;;26.05;14.68;;;7.80;99.90;;;;;;5112026;28;20110;-87
2024/01/30 07:13:11;;;;;;;23.10;14.57;;;7.50;99.90;;;;;;5117224;28;20488;-84
2024/01/30 07:15:36;;;;;;;24.08;14.93;;;6.80;99.90;;;;;;5117742;28;20048;-83
2024/01/30 07:18:03;;;;;;;23.30;14.35;;;7.40;99.90;;;;;;5116340;28;20054;-84
2024/01/30 07:20:30;;;;;;;21.42;14.43;;;6.40;99.90;;;;;;5117257;28;20040;-83
2024/01/30 07:22:56;;;;;;;23.38;14.85;;;6.90;99.90;;;;;;5116774;28;20460;-83
2024/01/30 07:25:26;;;;;;;25.05;14.55;;;6.40;99.90;;;;;;5115825;28;20049;-85
2024/01/30 07:27:52;;;;;;;26.75;15.35;;;6.70;99.90;;;;;;5115704;28;20035;-84
2024/01/30 07:30:18;;;;;;;23.98;14.70;;;6.20;99.90;;;;;;5116192;28;20084;-84
2024/01/30 07:32:44;;;;;;;22.30;14.55;;;6.40;99.90;;;;;;5117370;28;20131;-84
2024/01/30 07:35:11;;;;;;;23.70;14.88;;;7.30;99.90;;;;;;5116939;28;20126;-84
2024/01/30 07:45:32;;;;;;;21.13;14.30;;;6.50;99.90;;;;;;5095663;28;20044;-87
2024/01/30 07:47:58;;;;;;;24.30;14.35;;;6.40;99.90;;;;;;5096685;28;20044;-87
2024/01/30 07:50:23;;;;;;;30.02;14.45;;;6.50;99.90;;;;;;5106871;28;20468;-84
2024/01/30 07:52:51;;;;;;;21.67;14.13;;;6.40;99.90;;;;;;5104589;28;20043;-84
2024/01/30 07:55:17;;;;;;;25.50;14.50;;;6.70;99.90;;;;;;5115267;28;20035;-86
2024/01/30 07:57:42;;;;;;;24.55;14.32;;;6.70;99.90;;;;;;5098103;28;20088;-84
2024/01/30 08:00:08;;;;;;;24.00;15.02;;;7.70;99.90;;;;;;5098326;28;20078;-86
2024/01/30 08:02:34;;;;;;;23.13;14.70;;;6.70;99.90;;;;;;5115623;28;20105;-85
2024/01/30 08:05:00;;;;;;;21.77;14.40;;;6.80;99.90;;;;;;5116922;28;20043;-85
2024/01/30 08:07:26;;;;;;;21.80;14.73;;;8.20;99.90;;;;;;5124052;27;20062;-86
2024/01/30 08:09:51;;;;;;;22.23;13.70;;;8.50;99.90;;;;;;5115247;28;20044;-85
2024/01/30 08:12:17;;;;;;;21.23;14.02;;;7.10;99.90;;;;;;5116424;28;20373;-84
2024/01/30 08:14:43;;;;;;;22.95;14.15;;;7.40;99.90;;;;;;5115481;28;20078;-86
2024/01/30 08:17:08;;;;;;;27.02;14.05;;;6.90;99.90;;;;;;5115772;28;20089;-86
2024/01/30 08:19:34;;;;;;;23.60;13.63;;;7.80;99.90;;;;;;5115145;28;20488;-87
2024/01/30 08:22:00;;;;;;;22.20;14.30;;;6.90;99.90;;;;;;5097383;28;20078;-84
2024/01/30 08:24:25;;;;;;;21.38;13.65;;;6.90;99.90;;;;;;5114132;28;20047;-83
2024/01/30 08:26:51;;;;;;;22.27;13.48;;;8.20;99.90;;;;;;5116334;28;20046;-83
2024/01/30 08:29:17;;;;;;;21.88;13.40;;;8.50;99.90;;;;;;5116262;28;20403;-82
2024/01/30 08:31:42;;;;;;;23.73;13.63;;;6.10;99.90;;;;;;5122583;27;20046;-84
2024/01/30 08:34:08;;;;;;;19.13;13.57;;;8.00;99.90;;;;;;5115752;27;20381;-83
2024/01/30 08:36:34;;;;;;;19.58;13.20;;;6.50;99.90;;;;;;5097218;28;20036;-82
2024/01/30 08:38:59;;;;;;;26.20;13.32;;;7.80;99.90;;;;;;5115364;27;20039;-83
2024/01/30 08:41:25;;;;;;;22.38;13.75;;;8.10;99.90;;;;;;5114493;28;20032;-83
2024/01/30 08:43:52;;;;;;;19.05;12.93;;;7.10;99.90;;;;;;5115637;28;20108;-83
2024/01/30 08:46:18;;;;;;;24.13;14.15;;;7.20;99.90;;;;;;5114942;28;20089;-85
2024/01/30 08:48:46;;;;;;;19.38;13.55;;;7.10;99.90;;;;;;5114609;28;20043;-83
2024/01/30 08:51:12;;;;;;;26.65;13.93;;;7.40;99.90;;;;;;5114895;28;20082;-86
2024/01/30 08:53:39;;;;;;;20.50;12.90;;;8.80;99.90;;;;;;5096419;28;20089;-83
2024/01/30 08:56:06;;;;;;;20.17;13.20;;;7.50;99.90;;;;;;5114458;28;20885;-84
2024/01/30 08:58:32;;;;;;;17.27;11.95;;;7.50;99.90;;;;;;5114813;28;20048;-84
2024/01/30 09:00:58;;;;;;;21.98;13.10;;;7.40;99.90;;;;;;5115925;28;20073;-85
2024/01/30 09:03:24;;;;;;;20.42;12.50;;;7.70;99.90;;;;;;5115888;27;20108;-84
2024/01/30 09:05:50;;;;;;;18.10;12.38;;;7.70;99.90;;;;;;5113956;28;20028;-84
2024/01/30 09:08:16;;;;;;;20.90;12.20;;;8.30;99.90;;;;;;5115326;28;20530;-84
2024/01/30 09:10:41;;;;;;;21.13;12.27;;;7.70;99.90;;;;;;5115392;28;20058;-84
2024/01/30 09:13:07;;;;;;;26.67;12.77;;;7.80;99.90;;;;;;5113950;28;20138;-84
2024/01/30 09:15:33;;;;;;;19.05;11.95;;;7.80;99.90;;;;;;5114720;28;20044;-84
2024/01/30 09:17:58;;;;;;;20.38;12.75;;;7.90;99.90;;;;;;5114263;28;20035;-86
2024/01/30 09:20:24;;;;;;;18.75;12.70;;;7.70;99.90;;;;;;5114307;28;20036;-84
2024/01/30 09:22:50;;;;;;;16.85;12.63;;;9.20;99.90;;;;;;5115019;28;20055;-84
2024/01/30 09:25:15;;;;;;;18.13;11.80;;;7.90;99.90;;;;;;5112394;28;20035;-84
2024/01/30 09:27:41;;;;;;;20.02;13.00;;;8.40;99.90;;;;;;5113745;28;20036;-83
2024/01/30 09:30:07;;;;;;;19.23;11.75;;;8.30;99.90;;;;;;5113984;28;20059;-84
2024/01/30 09:32:33;;;;;;;16.98;11.68;;;8.20;99.90;;;;;;5113606;28;20039;-84
2024/01/30 09:34:59;;;;;;;20.67;12.60;;;8.50;99.90;;;;;;5095721;28;20035;-84
2024/01/30 09:37:24;;;;;;;22.25;12.25;;;8.90;99.90;;;;;;5114538;28;20042;-85
2024/01/30 09:39:50;;;;;;;23.52;12.98;;;8.30;99.90;;;;;;5096007;28;20369;-84
2024/01/30 09:42:27;;;;;;;22.67;12.15;;;9.40;99.90;;;;;;5114686;28;20040;-83
2024/01/30 09:44:53;;;;;;;19.05;11.48;;;9.10;99.90;;;;;;5109324;28;20450;-84
2024/01/30 09:47:19;;;;;;;22.65;12.77;;;8.70;99.90;;;;;;5113422;28;20104;-84
2024/01/30 09:49:46;;;;;;;17.38;11.07;;;8.80;99.90;;;;;;5114598;28;20069;-83
2024/01/30 09:52:12;;;;;;;19.50;11.27;;;8.80;99.90;;;;;;5113214;28;20051;-83
2024/01/30 09:54:38;;;;;;;19.85;11.93;;;8.90;99.90;;;;;;5096324;28;20042;-86
2024/01/30 09:57:05;;;;;;;17.40;11.75;;;9.40;99.90;;;;;;5114469;28;20051;-84
2024/01/30 09:59:31;;;;;;;17.88;11.43;;;9.00;99.90;;;;;;5112403;28;20040;-83
2024/01/30 10:01:57;;;;;;;17.67;11.85;;;9.40;99.90;;;;;;5112265;28;20514;-83
2024/01/30 10:04:23;;;;;;;19.63;11.82;;;9.30;99.90;;;;;;5113482;28;20487;-85
2024/01/30 10:06:50;;;;;;;20.80;11.30;;;9.00;99.90;;;;;;5113218;28;20055;-84
2024/01/30 10:09:16;;;;;;;17.92;11.00;;;9.10;99.90;;;;;;5112920;28;20161;-84
2024/01/30 10:11:42;;;;;;;22.08;11.40;;;9.60;99.90;;;;;;5114274;28;20377;-84
2024/01/30 10:14:07;;;;;;;23.80;12.15;;;9.10;99.90;;;;;;5112929;28;20043;-88
2024/01/30 10:16:34;;;;;;;19.83;10.93;;;9.50;99.90;;;;;;5114227;28;20038;-84
2024/01/30 10:19:00;;;;;;;15.73;11.05;;;9.60;99.90;;;;;;5112799;28;20122;-84
2024/01/30 10:21:26;;;;;;;19.65;11.45;;;10.40;99.90;;;;;;5114004;28;20551;-86
2024/01/30 10:23:52;;;;;;;20.30;10.90;;;9.30;99.90;;;;;;5113972;28;20122;-83
2024/01/30 10:26:17;;;;;;;17.50;10.93;;;9.40;99.90;;;;;;5112855;28;20036;-84
2024/01/30 10:28:43;;;;;;;19.00;10.73;;;9.50;99.90;;;;;;5114209;28;20501;-86
2024/01/30 10:31:09;;;;;;;19.75;11.38;;;10.00;99.90;;;;;;5112784;28;20096;-83
2024/01/30 10:33:35;;;;;;;19.70;10.80;;;9.50;99.90;;;;;;5112273;28;20384;-84
2024/01/30 10:36:02;;;;;;;19.20;11.57;;;9.60;99.90;;;;;;5113827;27;20123;-84
2024/01/30 10:38:32;;;;;;;18.45;11.23;;;10.00;99.90;;;;;;5112852;28;20043;-84
2024/01/30 10:40:59;;;;;;;16.88;11.07;;;9.90;99.90;;;;;;5112631;28;20388;-85
2024/01/30 10:43:33;;;;;;;28.35;11.60;;;10.20;99.90;;;;;;5113559;28;20613;-85
2024/01/30 10:46:12;;;;;;;22.92;11.40;;;9.70;99.90;;;;;;5112228;28;20043;-84
2024/01/30 10:48:42;;;;;;;22.30;11.73;;;9.70;99.90;;;;;;5095452;28;20039;-83
2024/01/30 10:51:10;;;;;;;17.10;10.68;;;9.60;99.90;;;;;;5112381;28;20089;-84
2024/01/30 10:53:37;;;;;;;14.75;11.05;;;9.80;99.90;;;;;;5112624;28;20388;-84
2024/01/30 10:56:04;;;;;;;17.27;11.40;;;9.70;99.90;;;;;;5112396;28;20040;-84
2024/01/30 10:58:30;;;;;;;17.63;10.68;;;9.70;99.90;;;;;;5095277;28;20049;-84
2024/01/30 11:00:56;;;;;;;22.00;10.43;;;10.10;99.90;;;;;;5112603;28;20099;-83
2024/01/30 11:03:23;;;;;;;19.90;10.13;;;10.40;99.90;;;;;;5112486;28;20050;-85
2024/01/30 11:05:52;;;;;;;19.70;10.32;;;9.60;99.90;;;;;;5112282;28;20039;-84
2024/01/30 11:08:25;;;;;;;17.80;9.88;;;9.80;99.90;;;;;;5111872;28;20104;-83
2024/01/30 11:10:57;;;;;;;19.52;9.57;;;10.10;99.90;;;;;;5112468;28;20130;-83
2024/01/30 11:13:26;;;;;;;19.17;9.82;;;9.90;99.90;;;;;;5112086;28;20061;-83
2024/01/30 11:15:51;;;;;;;20.48;9.40;;;9.80;99.90;;;;;;5112407;28;20035;-83
2024/01/30 11:18:25;;;;;;;20.58;8.98;;;9.80;99.90;;;;;;5112152;28;20391;-84
2024/01/30 11:20:51;;;;;;;15.30;9.05;;;10.40;99.90;;;;;;5093230;28;20090;-84
2024/01/30 11:23:16;;;;;;;15.00;7.43;;;10.30;99.90;;;;;;5091701;28;20085;-83
2024/01/30 11:25:44;;;;;;;12.48;7.43;;;9.90;99.90;;;;;;5093200;28;20496;-83
2024/01/30 11:28:15;;;;;;;16.27;6.60;;;10.60;99.90;;;;;;5092846;28;20044;-83
2024/01/30 11:30:41;;;;;;;15.70;6.95;;;10.30;99.90;;;;;;5106424;28;20096;-83
2024/01/30 11:33:13;;;;;;;18.45;6.18;;;10.40;99.90;;;;;;5113077;28;20051;-83
2024/01/30 11:35:44;;;;;;;16.13;6.20;;;10.00;99.90;;;;;;5112096;28;20051;-83
2024/01/30 11:38:11;;;;;;;13.15;6.22;;;10.00;99.90;;;;;;5113479;28;20054;-85
2024/01/30 11:40:38;;;;;;;13.13;6.20;;;10.00;99.90;;;;;;5112452;28;20047;-84
2024/01/30 11:43:05;;;;;;;16.85;6.38;;;10.50;99.90;;;;;;5094951;28;20560;-83
2024/01/30 11:45:32;;;;;;;12.85;5.38;;;9.90;99.90;;;;;;5112051;28;20507;-83
2024/01/30 11:48:03;;;;;;;16.02;5.20;;;10.10;99.90;;;;;;5113356;28;20047;-82
2024/01/30 11:50:33;;;;;;;11.70;4.53;;;9.80;99.90;;;;;;5112888;28;20093;-84
2024/01/30 11:52:59;;;;;;;12.05;4.13;;;10.00;99.90;;;;;;5111859;28;20085;-85
2024/01/30 11:55:25;;;;;;;9.55;4.05;;;10.10;99.90;;;;;;5111519;28;20047;-83
2024/01/30 11:57:54;;;;;;;11.18;4.20;;;9.70;99.90;;;;;;5111274;28;20070;-84
2024/01/30 12:00:20;;;;;;;11.88;3.90;;;9.80;99.90;;;;;;5117585;27;20043;-84
2024/01/30 12:02:57;;;;;;;15.63;3.30;;;9.80;99.90;;;;;;5115622;28;20046;-83
2024/01/30 12:05:26;;;;;;;10.43;3.35;;;10.20;99.90;;;;;;5116813;28;20093;-83
2024/01/30 12:07:53;;;;;;;8.45;2.40;;;9.80;99.90;;;;;;5115940;28;20071;-83
2024/01/30 12:10:19;;;;;;;8.20;1.90;;;9.80;99.90;;;;;;5098410;28;20551;-85
2024/01/30 12:12:47;;;;;;;6.80;1.95;;;9.70;99.90;;;;;;5116782;28;20050;-86
2024/01/30 12:15:14;;;;;;;11.38;2.20;;;9.70;99.90;;;;;;5116608;28;20046;-84
2024/01/30 12:17:40;;;;;;;4.13;1.50;;;9.60;99.90;;;;;;5115227;28;20040;-84
2024/01/30 12:20:11;;;;;;;3.95;1.00;;;9.60;99.90;;;;;;5115636;28;20044;-85
2024/01/30 12:22:48;;;;;;;3.10;1.17;;;9.60;99.90;;;;;;5098561;28;20059;-85
2024/01/30 12:25:18;;;;;;;5.47;1.08;;;9.60;99.90;;;;;;5115236;28;20039;-86
2024/01/30 12:27:46;;;;;;;3.75;0.85;;;9.60;99.90;;;;;;5115245;28;20130;-85
2024/01/30 12:30:13;;;;;;;4.85;1.17;;;9.60;99.90;;;;;;5096794;28;20185;-84
2024/01/30 12:32:42;;;;;;;4.05;1.10;;;9.60;99.90;;;;;;5114955;28;20035;-84
2024/01/30 12:35:16;;;;;;;1.48;1.00;;;9.90;99.90;;;;;;5116651;28;20043;-83
2024/01/30 12:37:43;;;;;;;4.15;1.00;;;9.60;99.90;;;;;;5113957;28;20074;-84
2024/01/30 12:40:11;;;;;;;3.88;1.00;;;9.80;99.90;;;;;;5117272;27;20047;-84
2024/01/30 12:42:37;;;;;;;1.05;0.60;;;9.60;99.90;;;;;;5104856;28;20609;-86